createdAt,value
2024-02-24T00:01:54.793Z,98662.31
2024-02-24T00:04:21.587Z,98661.00
2024-02-24T00:06:48.341Z,98668.53
2024-02-24T00:09:15.163Z,98673.81
2024-02-24T00:11:41.941Z,98677.25
2024-02-24T00:14:08.736Z,98678.31
2024-02-24T00:16:35.495Z,98681.22
2024-02-24T00:19:02.525Z,98681.25
2024-02-24T00:21:29.519Z,98672.22
2024-02-24T00:23:56.250Z,98666.78
2024-02-24T00:26:23.242Z,98665.75
2024-02-24T00:28:50.369Z,98661.81
2024-02-24T00:31:17.944Z,98666.69
2024-02-24T00:33:45.117Z,98669.00
2024-02-24T00:36:12.157Z,98668.75
2024-02-24T00:38:39.573Z,98673.69
2024-02-24T00:41:06.377Z,98674.31
2024-02-24T00:43:33.043Z,98662.81
2024-02-24T00:46:00.643Z,98668.34
2024-02-24T00:48:29.234Z,98674.31
2024-02-24T00:50:56.183Z,98684.69
2024-02-24T00:53:23.634Z,98682.50
2024-02-24T00:55:51.057Z,98680.88
2024-02-24T00:58:17.747Z,98674.28
2024-02-24T01:00:44.675Z,98672.13
2024-02-24T01:03:11.392Z,98672.47
2024-02-24T01:05:39.453Z,98676.19
2024-02-24T01:08:06.650Z,98682.09
2024-02-24T01:10:33.630Z,98690.28
2024-02-24T01:13:01.190Z,98695.94
2024-02-24T01:15:28.237Z,98695.66
2024-02-24T01:17:58.362Z,98691.84
2024-02-24T01:20:26.407Z,98693.03
2024-02-24T01:22:54.985Z,98693.19
2024-02-24T01:25:22.010Z,98692.97
2024-02-24T01:27:50.658Z,98697.88
2024-02-24T01:30:18.075Z,98695.69
2024-02-24T01:32:45.006Z,98698.16
2024-02-24T01:35:11.894Z,98696.31
2024-02-24T01:37:38.665Z,98689.84
2024-02-24T01:40:06.902Z,98695.16
2024-02-24T01:42:34.104Z,98693.28
2024-02-24T01:45:01.307Z,98695.13
2024-02-24T01:47:29.803Z,98692.50
2024-02-24T01:49:57.419Z,98690.91
2024-02-24T01:52:25.915Z,98696.28
2024-02-24T01:54:58.982Z,98698.19
2024-02-24T01:57:28.060Z,98706.13
2024-02-24T01:59:56.101Z,98700.13
2024-02-24T02:02:23.502Z,98698.06
2024-02-24T02:04:50.276Z,98698.59
2024-02-24T02:07:17.543Z,98704.78
2024-02-24T02:09:57.957Z,98700.81
2024-02-24T02:12:26.042Z,98705.00
2024-02-24T02:14:53.817Z,98706.41
2024-02-24T02:17:21.692Z,98707.66
2024-02-24T02:19:49.181Z,98699.25
2024-02-24T02:22:17.459Z,98705.94
2024-02-24T02:24:45.950Z,98697.94
2024-02-24T02:27:13.007Z,98703.53
2024-02-24T02:29:39.810Z,98706.78
2024-02-24T02:32:09.032Z,98711.84
2024-02-24T02:34:36.220Z,98708.34
2024-02-24T02:37:03.201Z,98718.44
2024-02-24T02:39:30.102Z,98721.91
2024-02-24T02:41:56.774Z,98725.63
2024-02-24T02:44:24.416Z,98724.28
2024-02-24T02:46:51.832Z,98715.41
2024-02-24T02:49:19.516Z,98728.75
2024-02-24T02:51:46.287Z,98715.19
2024-02-24T02:54:13.061Z,98715.66
2024-02-24T02:56:39.808Z,98715.50
2024-02-24T02:59:06.933Z,98717.91
2024-02-24T03:01:33.944Z,98723.25
2024-02-24T03:04:00.713Z,98715.31
2024-02-24T03:06:27.789Z,98732.66
2024-02-24T03:08:56.892Z,98735.53
2024-02-24T03:11:24.326Z,98733.63
2024-02-24T03:13:51.105Z,98737.91
2024-02-24T03:16:22.051Z,98740.50
2024-02-24T03:18:50.174Z,98755.47
2024-02-24T03:21:28.330Z,98755.16
2024-02-24T03:23:56.525Z,98754.44
2024-02-24T03:26:23.403Z,98743.56
2024-02-24T03:28:50.200Z,98755.69
2024-02-24T03:31:17.439Z,98760.59
2024-02-24T03:33:44.192Z,98762.81
2024-02-24T03:36:17.799Z,98762.97
2024-02-24T03:38:44.925Z,98758.72
2024-02-24T03:41:12.201Z,98763.81
2024-02-24T03:43:39.636Z,98771.81
2024-02-24T03:46:07.491Z,98779.44
2024-02-24T03:48:34.887Z,98775.06
2024-02-24T03:51:03.234Z,98780.63
2024-02-24T03:53:30.254Z,98783.06
2024-02-24T03:55:57.206Z,98775.09
2024-02-24T03:58:24.248Z,98777.09
2024-02-24T04:00:52.322Z,98780.78
2024-02-24T04:03:19.629Z,98787.09
2024-02-24T04:05:47.941Z,98773.00
2024-02-24T04:08:15.269Z,98773.88
2024-02-24T04:10:44.464Z,98774.06
2024-02-24T04:13:11.913Z,98768.84
2024-02-24T04:15:38.641Z,98767.28
2024-02-24T04:18:06.159Z,98769.13
2024-02-24T04:20:33.182Z,98767.09
2024-02-24T04:22:59.938Z,98766.78
2024-02-24T04:25:26.680Z,98769.41
2024-02-24T04:27:53.472Z,98770.56
2024-02-24T04:30:20.185Z,98761.25
2024-02-24T04:32:47.058Z,98758.41
2024-02-24T04:35:14.223Z,98766.97
2024-02-24T04:37:41.571Z,98765.16
2024-02-24T04:40:09.053Z,98753.59
2024-02-24T04:42:36.101Z,98758.72
2024-02-24T04:45:03.079Z,98771.91
2024-02-24T04:47:32.299Z,98776.28
2024-02-24T04:49:59.361Z,98781.50
2024-02-24T04:52:26.109Z,98776.34
2024-02-24T04:54:53.198Z,98773.22
2024-02-24T04:57:19.931Z,98781.44
2024-02-24T04:59:46.801Z,98792.81
2024-02-24T05:02:13.771Z,98784.00
2024-02-24T05:04:40.722Z,98793.63
2024-02-24T05:07:07.549Z,98790.44
2024-02-24T05:09:34.329Z,98787.16
2024-02-24T05:12:01.297Z,98776.81
2024-02-24T05:14:28.067Z,98786.41
2024-02-24T05:16:55.331Z,98794.19
2024-02-24T05:19:22.454Z,98798.53
2024-02-24T05:21:49.823Z,98802.78
2024-02-24T05:24:17.802Z,98807.19
2024-02-24T05:26:44.607Z,98814.97
2024-02-24T05:29:12.040Z,98823.41
2024-02-24T05:31:38.996Z,98825.38
2024-02-24T05:34:06.345Z,98813.28
2024-02-24T05:36:33.814Z,98819.25
2024-02-24T05:39:00.502Z,98817.56
2024-02-24T05:41:27.803Z,98819.13
2024-02-24T05:43:54.501Z,98817.19
2024-02-24T05:46:21.174Z,98813.34
2024-02-24T05:48:48.260Z,98816.44
2024-02-24T05:51:17.495Z,98824.50
2024-02-24T05:53:44.256Z,98829.03
2024-02-24T05:56:11.105Z,98835.16
2024-02-24T05:58:37.781Z,98842.25
2024-02-24T06:01:04.699Z,98843.69
2024-02-24T06:03:31.566Z,98847.56
2024-02-24T06:05:58.396Z,98851.00
2024-02-24T06:08:25.425Z,98857.59
2024-02-24T06:10:52.176Z,98855.72
2024-02-24T06:13:19.076Z,98864.16
2024-02-24T06:15:46.024Z,98872.28
2024-02-24T06:18:12.905Z,98876.41
2024-02-24T06:20:39.888Z,98868.22
2024-02-24T06:23:07.745Z,98876.88
2024-02-24T06:25:34.632Z,98882.88
2024-02-24T06:28:01.694Z,98880.03
2024-02-24T06:30:28.407Z,98880.25
2024-02-24T06:32:55.368Z,98894.13
2024-02-24T06:35:22.366Z,98897.31
2024-02-24T06:37:49.327Z,98886.91
2024-02-24T06:40:25.629Z,98895.75
2024-02-24T06:42:56.752Z,98900.66
2024-02-24T06:45:23.561Z,98900.75
2024-02-24T06:47:50.486Z,98904.34
2024-02-24T06:50:17.458Z,98907.19
2024-02-24T06:52:44.375Z,98924.56
2024-02-24T06:55:11.112Z,98934.00
2024-02-24T06:57:37.819Z,98932.88
2024-02-24T07:00:05.399Z,98941.69
2024-02-24T07:02:32.489Z,98928.78
2024-02-24T07:04:59.316Z,98939.81
2024-02-24T07:07:26.476Z,98941.19
2024-02-24T07:09:53.190Z,98956.09
2024-02-24T07:12:20.225Z,98952.53
2024-02-24T07:14:47.083Z,98959.19
2024-02-24T07:17:14.373Z,98970.78
2024-02-24T07:19:42.263Z,98985.78
2024-02-24T07:22:09.250Z,98988.81
2024-02-24T07:24:35.974Z,98999.28
2024-02-24T07:27:02.895Z,99001.53
2024-02-24T07:29:30.659Z,99009.78
2024-02-24T07:31:57.671Z,99003.84
2024-02-24T07:34:24.478Z,99009.72
2024-02-24T07:36:51.243Z,99016.91
2024-02-24T07:39:18.296Z,99015.91
2024-02-24T07:41:45.108Z,99028.25
2024-02-24T07:44:12.779Z,99030.88
2024-02-24T07:46:39.580Z,99037.94
2024-02-24T07:49:06.297Z,99037.44
2024-02-24T07:51:33.201Z,99037.47
2024-02-24T07:54:00.367Z,99037.28
2024-02-24T07:56:28.493Z,99049.56
2024-02-24T07:58:55.650Z,99054.81
2024-02-24T08:01:22.562Z,99057.06
2024-02-24T08:03:49.284Z,99058.13
2024-02-24T08:06:16.173Z,99062.53
2024-02-24T08:08:43.010Z,99065.66
2024-02-24T08:11:09.722Z,99068.34
2024-02-24T08:13:42.907Z,99080.53
2024-02-24T08:16:10.378Z,99079.22
2024-02-24T08:18:37.377Z,99087.13
2024-02-24T08:21:08.106Z,99089.50
2024-02-24T08:23:36.055Z,99091.13
2024-02-24T08:26:03.073Z,99093.88
2024-02-24T08:28:30.668Z,99086.00
2024-02-24T08:30:57.530Z,99102.84
2024-02-24T08:33:24.620Z,99097.34
2024-02-24T08:35:52.064Z,99114.59
2024-02-24T08:38:18.951Z,99117.88
2024-02-24T08:40:45.955Z,99117.41
2024-02-24T08:43:13.174Z,99128.13
2024-02-24T08:45:40.009Z,99126.59
2024-02-24T08:48:07.246Z,99139.16
2024-02-24T08:50:34.274Z,99147.16
2024-02-24T08:53:01.371Z,99142.38
2024-02-24T08:55:28.299Z,99152.59
2024-02-24T08:57:55.043Z,99152.09
2024-02-24T09:00:22.226Z,99162.63
2024-02-24T09:02:49.491Z,99173.28
2024-02-24T09:05:17.123Z,99170.47
2024-02-24T09:07:44.202Z,99159.97
2024-02-24T09:10:11.108Z,99170.41
2024-02-24T09:12:37.958Z,99170.19
2024-02-24T09:15:05.260Z,99176.22
2024-02-24T09:17:32.289Z,99179.69
2024-02-24T09:19:58.999Z,99176.22
2024-02-24T09:22:25.683Z,99172.44
2024-02-24T09:24:52.414Z,99180.88
2024-02-24T09:27:19.437Z,99188.69
2024-02-24T09:29:49.142Z,99201.28
2024-02-24T09:32:18.810Z,99203.22
2024-02-24T09:34:46.444Z,99200.56
2024-02-24T09:37:13.651Z,99209.25
2024-02-24T09:39:41.920Z,99214.63
2024-02-24T09:42:10.708Z,99217.72
2024-02-24T09:44:39.798Z,99221.28
2024-02-24T09:47:07.053Z,99225.03
2024-02-24T09:49:34.472Z,99226.41
2024-02-24T09:52:01.727Z,99224.28
2024-02-24T09:54:29.017Z,99228.00
2024-02-24T09:56:56.717Z,99229.19
2024-02-24T09:59:26.225Z,99223.31
2024-02-24T10:01:53.103Z,99239.34
2024-02-24T10:04:20.292Z,99227.72
2024-02-24T10:06:47.071Z,99238.25
2024-02-24T10:09:14.042Z,99235.75
2024-02-24T10:11:41.907Z,99250.88
2024-02-24T10:14:09.640Z,99250.38
2024-02-24T10:16:39.680Z,99262.19
2024-02-24T10:19:07.369Z,99253.69
2024-02-24T10:21:35.255Z,99244.31
2024-02-24T10:24:06.171Z,99243.56
2024-02-24T10:26:32.902Z,99235.38
2024-02-24T10:28:59.679Z,99246.06
2024-02-24T10:31:28.176Z,99248.59
2024-02-24T10:33:56.092Z,99237.06
2024-02-24T10:36:24.390Z,99245.53
2024-02-24T10:38:55.751Z,99247.78
2024-02-24T10:41:26.599Z,99244.22
2024-02-24T10:44:02.007Z,99247.78
2024-02-24T10:46:36.773Z,99240.09
2024-02-24T10:49:04.109Z,99243.84
2024-02-24T10:51:33.846Z,99249.53
2024-02-24T10:54:07.109Z,99260.56
2024-02-24T10:56:34.087Z,99258.72
2024-02-24T10:59:11.280Z,99252.19
2024-02-24T11:01:47.109Z,99260.78
2024-02-24T11:04:16.661Z,99266.69
2024-02-24T11:06:53.129Z,99272.00
2024-02-24T11:09:26.035Z,99270.97
2024-02-24T11:11:52.893Z,99258.09
2024-02-24T11:14:22.817Z,99259.88
2024-02-24T11:16:52.001Z,99254.50
2024-02-24T11:19:44.806Z,99264.59
2024-02-24T11:22:22.648Z,99261.69
2024-02-24T11:25:01.647Z,99278.66
2024-02-24T11:27:33.047Z,99268.72
2024-02-24T11:30:00.522Z,99269.97
2024-02-24T11:32:27.612Z,99264.75
2024-02-24T11:34:57.022Z,99266.84
2024-02-24T11:37:24.199Z,99254.66
2024-02-24T11:39:53.021Z,99266.63
2024-02-24T11:42:22.541Z,99267.00
2024-02-24T11:44:51.126Z,99265.69
2024-02-24T11:47:20.126Z,99265.91
2024-02-24T11:49:49.270Z,99262.75
2024-02-24T11:52:16.815Z,99255.69
2024-02-24T11:54:45.107Z,99259.63
2024-02-24T11:57:15.388Z,99253.56
2024-02-24T11:59:42.179Z,99259.69
2024-02-24T12:02:09.372Z,99264.06
2024-02-24T12:04:36.474Z,99271.03
2024-02-24T12:07:05.529Z,99266.88
2024-02-24T12:09:32.471Z,99268.34
2024-02-24T12:11:59.470Z,99264.13
2024-02-24T12:14:30.396Z,99263.41
2024-02-24T12:16:58.506Z,99262.13
2024-02-24T12:19:28.914Z,99268.84
2024-02-24T12:21:56.362Z,99268.28
2024-02-24T12:24:28.132Z,99270.63
2024-02-24T12:26:59.594Z,99263.22
2024-02-24T12:29:26.495Z,99270.50
2024-02-24T12:31:53.230Z,99259.56
2024-02-24T12:34:21.055Z,99259.56
2024-02-24T12:36:57.771Z,99265.44
2024-02-24T12:39:26.048Z,99261.16
2024-02-24T12:41:56.445Z,99270.63
2024-02-24T12:44:23.506Z,99258.41
2024-02-24T12:46:50.545Z,99269.72
2024-02-24T12:49:17.531Z,99266.84
2024-02-24T12:51:53.734Z,99266.78
2024-02-24T12:54:20.517Z,99270.66
2024-02-24T12:56:47.526Z,99274.69
2024-02-24T12:59:14.282Z,99263.81
2024-02-24T13:01:41.192Z,99273.78
2024-02-24T13:04:08.038Z,99277.66
2024-02-24T13:06:35.383Z,99278.06
2024-02-24T13:09:02.282Z,99269.09
2024-02-24T13:11:29.170Z,99267.75
2024-02-24T13:13:56.017Z,99277.66
2024-02-24T13:16:22.819Z,99282.53
2024-02-24T13:18:49.575Z,99288.38
2024-02-24T13:21:16.467Z,99283.50
2024-02-24T13:23:43.209Z,99286.44
2024-02-24T13:26:10.096Z,99286.09
2024-02-24T13:28:36.844Z,99278.34
2024-02-24T13:31:03.653Z,99281.44
2024-02-24T13:33:31.121Z,99275.09
2024-02-24T13:35:58.459Z,99286.41
2024-02-24T13:38:25.504Z,99284.53
2024-02-24T13:40:52.592Z,99287.47
2024-02-24T13:43:19.897Z,99282.13
2024-02-24T13:45:46.797Z,99281.47
2024-02-24T13:48:13.642Z,99286.91
2024-02-24T13:50:41.221Z,99288.59
2024-02-24T13:53:10.300Z,99284.81
2024-02-24T13:55:38.409Z,99286.94
2024-02-24T13:58:05.890Z,99297.16
2024-02-24T14:00:32.740Z,99291.28
2024-02-24T14:03:00.627Z,99296.38
2024-02-24T14:05:27.419Z,99287.78
2024-02-24T14:07:54.314Z,99299.53
2024-02-24T14:10:21.281Z,99304.63
2024-02-24T14:12:47.984Z,99302.53
2024-02-24T14:15:14.780Z,99300.19
2024-02-24T14:17:41.538Z,99310.53
2024-02-24T14:20:19.500Z,99301.47
2024-02-24T14:22:52.049Z,99311.09
2024-02-24T14:25:18.762Z,99307.13
2024-02-24T14:27:45.545Z,99300.41
2024-02-24T14:30:12.550Z,99304.19
2024-02-24T14:32:39.393Z,99306.00
2024-02-24T14:35:15.172Z,99300.38
2024-02-24T14:37:41.990Z,99305.59
2024-02-24T14:40:09.303Z,99304.63
2024-02-24T14:42:36.401Z,99304.03
2024-02-24T14:45:03.632Z,99301.91
2024-02-24T14:47:32.362Z,99299.00
2024-02-24T14:49:59.203Z,99307.94
2024-02-24T14:52:26.190Z,99303.53
2024-02-24T14:54:53.778Z,99305.88
2024-02-24T14:57:20.588Z,99309.47
2024-02-24T14:59:47.377Z,99305.75
2024-02-24T15:02:25.564Z,99318.16
2024-02-24T15:05:01.789Z,99313.84
2024-02-24T15:07:28.657Z,99316.53
2024-02-24T15:09:55.599Z,99317.03
2024-02-24T15:12:22.611Z,99327.00
2024-02-24T15:14:49.343Z,99332.91
2024-02-24T15:17:16.009Z,99333.38
2024-02-24T15:19:46.213Z,99334.25
2024-02-24T15:22:13.013Z,99325.88
2024-02-24T15:24:39.738Z,99339.03
2024-02-24T15:27:06.731Z,99334.44
2024-02-24T15:29:33.507Z,99331.91
2024-02-24T15:32:00.351Z,99332.72
2024-02-24T15:34:28.480Z,99343.75
2024-02-24T15:36:55.248Z,99338.97
2024-02-24T15:39:25.065Z,99334.31
2024-02-24T15:41:51.998Z,99347.88
2024-02-24T15:44:18.827Z,99348.13
2024-02-24T15:46:47.304Z,99347.81
2024-02-24T15:49:15.038Z,99351.50
2024-02-24T15:51:41.862Z,99346.66
2024-02-24T15:54:08.892Z,99354.38
2024-02-24T15:56:35.735Z,99358.56
2024-02-24T15:59:02.873Z,99351.97
2024-02-24T16:01:29.725Z,99360.34
2024-02-24T16:03:57.447Z,99354.38
2024-02-24T16:06:25.309Z,99365.47
2024-02-24T16:08:58.177Z,99375.47
2024-02-24T16:11:25.147Z,99374.31
2024-02-24T16:13:52.021Z,99370.22
2024-02-24T16:16:21.626Z,99374.78
2024-02-24T16:18:49.869Z,99377.25
2024-02-24T16:21:16.745Z,99381.19
2024-02-24T16:23:43.480Z,99383.91
2024-02-24T16:26:10.936Z,99376.66
2024-02-24T16:28:37.673Z,99383.41
2024-02-24T16:31:04.517Z,99380.94
2024-02-24T16:33:31.595Z,99378.75
2024-02-24T16:35:58.545Z,99383.28
2024-02-24T16:38:25.503Z,99384.91
2024-02-24T16:40:52.321Z,99386.78
2024-02-24T16:43:19.048Z,99385.19
2024-02-24T16:45:45.993Z,99383.34
2024-02-24T16:48:16.976Z,99388.38
2024-02-24T16:50:44.154Z,99392.94
2024-02-24T16:53:13.355Z,99388.56
2024-02-24T16:55:40.086Z,99391.25
2024-02-24T16:58:07.890Z,99394.59
2024-02-24T17:00:35.661Z,99404.25
2024-02-24T17:03:02.803Z,99402.34
2024-02-24T17:05:29.548Z,99411.91
2024-02-24T17:07:56.251Z,99407.69
2024-02-24T17:10:23.064Z,99406.81
2024-02-24T17:12:50.150Z,99406.97
2024-02-24T17:15:16.967Z,99416.66
2024-02-24T17:17:44.606Z,99431.19
2024-02-24T17:20:11.666Z,99425.34
2024-02-24T17:22:39.870Z,99439.13
2024-02-24T17:25:07.319Z,99433.53
2024-02-24T17:27:34.102Z,99438.97
2024-02-24T17:30:01.029Z,99445.63
2024-02-24T17:32:27.855Z,99440.00
2024-02-24T17:34:55.066Z,99433.41
2024-02-24T17:37:22.619Z,99435.28
2024-02-24T17:39:53.489Z,99442.91
2024-02-24T17:42:20.249Z,99443.03
2024-02-24T17:44:47.009Z,99448.28
2024-02-24T17:47:13.882Z,99447.78
2024-02-24T17:49:41.715Z,99447.19
2024-02-24T17:52:08.441Z,99440.72
2024-02-24T17:54:35.161Z,99453.22
2024-02-24T17:57:01.917Z,99458.97
2024-02-24T17:59:28.949Z,99450.84
2024-02-24T18:01:58.089Z,99458.31
2024-02-24T18:04:25.979Z,99455.16
2024-02-24T18:06:53.709Z,99460.88
2024-02-24T18:09:21.677Z,99457.13
2024-02-24T18:11:49.117Z,99456.47
2024-02-24T18:14:15.833Z,99462.22
2024-02-24T18:16:43.035Z,99467.63
2024-02-24T18:19:10.750Z,99465.94
2024-02-24T18:21:37.776Z,99471.44
2024-02-24T18:24:04.844Z,99467.81
2024-02-24T18:26:32.951Z,99470.28
2024-02-24T18:29:02.188Z,99469.72
2024-02-24T18:31:32.074Z,99468.91
2024-02-24T18:33:59.114Z,99463.84
2024-02-24T18:36:27.024Z,99463.03
2024-02-24T18:38:54.725Z,99465.53
2024-02-24T18:41:21.557Z,99465.41
2024-02-24T18:43:49.218Z,99462.97
2024-02-24T18:46:16.074Z,99459.69
2024-02-24T18:48:42.963Z,99462.88
2024-02-24T18:51:09.954Z,99452.78
2024-02-24T18:53:36.985Z,99447.38
2024-02-24T18:56:04.471Z,99451.72
2024-02-24T18:58:31.619Z,99439.84
2024-02-24T19:01:04.317Z,99449.38
2024-02-24T19:03:31.591Z,99440.88
2024-02-24T19:05:59.613Z,99446.28
2024-02-24T19:08:26.461Z,99446.53
2024-02-24T19:10:53.209Z,99455.56
2024-02-24T19:13:20.071Z,99452.59
2024-02-24T19:15:47.218Z,99446.53
2024-02-24T19:18:14.831Z,99452.88
2024-02-24T19:20:42.114Z,99459.31
2024-02-24T19:23:09.390Z,99464.28
2024-02-24T19:25:36.121Z,99463.47
2024-02-24T19:28:03.164Z,99475.97
2024-02-24T19:30:30.378Z,99469.31
2024-02-24T19:32:58.671Z,99468.69
2024-02-24T19:35:25.667Z,99475.41
2024-02-24T19:37:52.424Z,99467.44
2024-02-24T19:40:21.392Z,99472.34
2024-02-24T19:42:48.209Z,99477.41
2024-02-24T19:45:15.029Z,99477.03
2024-02-24T19:47:42.165Z,99473.13
2024-02-24T19:50:09.381Z,99475.25
2024-02-24T19:52:36.063Z,99475.91
2024-02-24T19:55:02.973Z,99469.50
2024-02-24T19:57:30.880Z,99469.66
2024-02-24T19:59:58.377Z,99463.59
2024-02-24T20:02:25.637Z,99468.34
2024-02-24T20:04:52.690Z,99475.63
2024-02-24T20:07:19.623Z,99464.50
2024-02-24T20:09:47.461Z,99476.13
2024-02-24T20:12:14.494Z,99474.84
2024-02-24T20:14:41.637Z,99477.41
2024-02-24T20:17:08.475Z,99470.63
2024-02-24T20:19:35.810Z,99479.59
2024-02-24T20:22:04.394Z,99480.06
2024-02-24T20:24:31.087Z,99478.53
2024-02-24T20:26:58.081Z,99484.94
2024-02-24T20:29:24.863Z,99477.97
2024-02-24T20:31:54.119Z,99482.22
2024-02-24T20:34:21.032Z,99477.47
2024-02-24T20:36:47.812Z,99474.38
2024-02-24T20:39:14.608Z,99481.13
2024-02-24T20:41:44.327Z,99486.25
2024-02-24T20:44:11.443Z,99483.53
2024-02-24T20:46:48.727Z,99481.81
2024-02-24T20:49:18.562Z,99487.88
2024-02-24T20:51:45.720Z,99492.41
2024-02-24T20:54:12.453Z,99500.94
2024-02-24T20:56:39.295Z,99500.78
2024-02-24T20:59:06.121Z,99497.41
2024-02-24T21:01:33.227Z,99495.91
2024-02-24T21:04:00.164Z,99500.06
2024-02-24T21:06:27.272Z,99499.19
2024-02-24T21:08:54.154Z,99495.78
2024-02-24T21:11:21.016Z,99497.25
2024-02-24T21:13:47.773Z,99497.19
2024-02-24T21:16:14.523Z,99504.41
2024-02-24T21:18:41.530Z,99507.75
2024-02-24T21:21:08.739Z,99502.63
2024-02-24T21:23:35.455Z,99493.53
2024-02-24T21:26:09.038Z,99499.03
2024-02-24T21:28:37.287Z,99502.66
2024-02-24T21:31:04.176Z,99502.75
2024-02-24T21:33:31.148Z,99504.44
2024-02-24T21:35:58.166Z,99500.88
2024-02-24T21:38:24.987Z,99512.16
2024-02-24T21:40:51.735Z,99505.91
2024-02-24T21:43:18.474Z,99502.41
2024-02-24T21:45:46.804Z,99512.34
2024-02-24T21:48:16.185Z,99499.13
2024-02-24T21:50:44.479Z,99498.00
2024-02-24T21:53:11.160Z,99504.00
2024-02-24T21:55:37.893Z,99510.06
2024-02-24T21:58:05.026Z,99514.94
2024-02-24T22:00:31.993Z,99506.16
2024-02-24T22:03:02.196Z,99510.06
2024-02-24T22:05:29.118Z,99519.94
2024-02-24T22:07:55.920Z,99505.22
2024-02-24T22:10:23.174Z,99511.78
2024-02-24T22:12:50.816Z,99516.41
2024-02-24T22:15:19.528Z,99512.16
2024-02-24T22:17:47.484Z,99511.53
2024-02-24T22:20:14.879Z,99508.44
2024-02-24T22:22:41.873Z,99509.91
2024-02-24T22:25:10.183Z,99511.03
2024-02-24T22:27:38.522Z,99510.97
2024-02-24T22:30:13.346Z,99513.66
2024-02-24T22:32:44.204Z,99508.38
2024-02-24T22:35:11.371Z,99510.00
2024-02-24T22:37:38.880Z,99502.88
2024-02-24T22:40:07.035Z,99505.63
2024-02-24T22:42:36.992Z,99510.63
2024-02-24T22:45:07.624Z,99499.03
2024-02-24T22:47:34.796Z,99503.56
2024-02-24T22:50:01.654Z,99498.97
2024-02-24T22:52:28.701Z,99510.72
2024-02-24T22:54:55.427Z,99509.81
2024-02-24T22:57:23.076Z,99508.69
2024-02-24T22:59:49.875Z,99512.97
2024-02-24T23:02:16.748Z,99501.97
2024-02-24T23:04:43.494Z,99510.53
2024-02-24T23:07:10.449Z,99517.88
2024-02-24T23:09:37.384Z,99500.59
2024-02-24T23:12:04.508Z,99495.31
2024-02-24T23:14:31.566Z,99496.75
2024-02-24T23:16:58.269Z,99497.94
2024-02-24T23:19:25.232Z,99494.91
2024-02-24T23:21:52.031Z,99492.56
2024-02-24T23:24:18.717Z,99504.63
2024-02-24T23:26:45.676Z,99501.28
2024-02-24T23:29:12.734Z,99507.06
2024-02-24T23:31:39.595Z,99515.09
2024-02-24T23:34:07.048Z,99509.69
2024-02-24T23:36:33.882Z,99509.69
2024-02-24T23:39:01.086Z,99510.91
2024-02-24T23:41:28.028Z,99514.44
2024-02-24T23:43:54.758Z,99510.03
2024-02-24T23:46:21.539Z,99504.72
2024-02-24T23:48:48.588Z,99512.00
2024-02-24T23:51:15.849Z,99510.97
2024-02-24T23:53:42.809Z,99498.94
2024-02-24T23:56:10.398Z,99503.09
2024-02-24T23:58:37.485Z,99498.00
